createdAt,value
2022-10-08T00:00:52.547Z,2.97
2022-10-08T00:03:20.719Z,2.83
2022-10-08T00:06:00.551Z,3.10
2022-10-08T00:08:29.219Z,2.30
2022-10-08T00:10:58.736Z,2.90
2022-10-08T00:13:27.050Z,2.90
2022-10-08T00:15:54.229Z,3.47
2022-10-08T00:18:21.438Z,3.23
2022-10-08T00:20:48.480Z,3.53
2022-10-08T00:23:16.840Z,3.97
2022-10-08T00:25:44.492Z,3.37
2022-10-08T00:28:13.610Z,3.87
2022-10-08T00:30:41.445Z,3.33
2022-10-08T00:33:08.769Z,4.00
2022-10-08T00:35:40.001Z,3.83
2022-10-08T00:38:07.575Z,3.57
2022-10-08T00:40:44.675Z,2.90
2022-10-08T00:43:16.138Z,3.77
2022-10-08T00:45:47.816Z,4.40
2022-10-08T00:48:25.618Z,4.17
2022-10-08T00:50:52.418Z,3.33
2022-10-08T00:53:19.092Z,3.40
2022-10-08T00:55:45.730Z,4.30
2022-10-08T00:58:22.412Z,2.13
2022-10-08T01:00:50.590Z,4.13
2022-10-08T01:03:17.669Z,2.90
2022-10-08T01:06:10.484Z,3.30
2022-10-08T01:08:53.985Z,3.70
2022-10-08T01:11:36.528Z,3.40
2022-10-08T01:14:23.385Z,2.70
2022-10-08T01:17:02.979Z,2.47
2022-10-08T01:19:35.414Z,3.30
2022-10-08T01:22:30.598Z,2.60
2022-10-08T01:25:32.735Z,3.30
2022-10-08T01:28:22.519Z,3.10
2022-10-08T01:30:56.179Z,2.40
2022-10-08T01:33:33.610Z,3.03
2022-10-08T01:36:04.161Z,2.77
2022-10-08T01:38:33.912Z,3.20
2022-10-08T01:41:05.219Z,3.40
2022-10-08T01:43:35.224Z,3.10
2022-10-08T01:46:09.882Z,3.00
2022-10-08T01:48:38.795Z,2.80
2022-10-08T01:51:13.802Z,3.20
2022-10-08T01:53:45.844Z,2.83
2022-10-08T01:56:18.341Z,2.87
2022-10-08T01:59:07.124Z,3.40
2022-10-08T02:01:51.462Z,2.03
2022-10-08T02:04:34.991Z,3.30
2022-10-08T02:07:23.067Z,3.80
2022-10-08T02:10:14.827Z,3.90
2022-10-08T02:12:42.774Z,4.40
2022-10-08T02:15:14.086Z,3.30
2022-10-08T02:17:52.460Z,2.70
2022-10-08T02:20:34.126Z,4.10
2022-10-08T02:23:17.841Z,3.33
2022-10-08T02:25:50.447Z,3.30
2022-10-08T02:28:20.170Z,3.20
2022-10-08T02:30:57.867Z,2.57
2022-10-08T02:33:31.687Z,1.87
2022-10-08T02:36:00.414Z,2.83
2022-10-08T02:38:33.782Z,2.83
2022-10-08T02:41:03.557Z,2.50
2022-10-08T02:43:33.533Z,2.50
2022-10-08T02:46:06.585Z,2.80
2022-10-08T02:48:36.528Z,2.90
2022-10-08T02:51:11.678Z,2.57
2022-10-08T02:53:40.330Z,2.30
2022-10-08T02:56:17.645Z,2.53
2022-10-08T02:58:46.203Z,2.90
2022-10-08T03:01:26.627Z,2.90
2022-10-08T03:04:21.604Z,3.47
2022-10-08T03:06:49.950Z,3.03
2022-10-08T03:09:19.001Z,2.50
2022-10-08T03:11:46.542Z,3.07
2022-10-08T03:14:16.227Z,2.70
2022-10-08T03:16:45.414Z,3.10
2022-10-08T03:19:14.567Z,2.90
2022-10-08T03:21:43.785Z,3.60
2022-10-08T03:24:12.859Z,3.07
2022-10-08T03:26:40.329Z,3.20
2022-10-08T03:29:10.906Z,3.13
2022-10-08T03:31:37.706Z,2.50
2022-10-08T03:34:04.478Z,2.90
2022-10-08T03:36:31.651Z,2.83
2022-10-08T03:38:58.321Z,2.83
2022-10-08T03:41:25.512Z,2.37
2022-10-08T03:43:52.128Z,4.27
2022-10-08T03:46:18.801Z,3.17
2022-10-08T03:48:49.730Z,3.80
2022-10-08T03:51:17.268Z,3.10
2022-10-08T03:53:44.682Z,2.03
2022-10-08T03:56:17.557Z,3.40
2022-10-08T03:58:44.258Z,2.70
2022-10-08T04:01:16.379Z,3.10
2022-10-08T04:03:45.192Z,2.33
2022-10-08T04:06:12.823Z,2.53
2022-10-08T04:08:39.859Z,3.03
2022-10-08T04:11:08.527Z,2.80
2022-10-08T04:13:36.412Z,2.87
2022-10-08T04:16:05.401Z,3.20
2022-10-08T04:18:32.811Z,2.97
2022-10-08T04:21:01.184Z,4.40
2022-10-08T04:23:28.935Z,3.43
2022-10-08T04:25:55.638Z,4.03
2022-10-08T04:28:22.928Z,2.60
2022-10-08T04:30:57.808Z,3.37
2022-10-08T04:33:24.786Z,3.60
2022-10-08T04:35:55.137Z,3.27
2022-10-08T04:38:26.301Z,3.23
2022-10-08T04:41:05.565Z,3.63
2022-10-08T04:43:32.973Z,3.10
2022-10-08T04:45:59.687Z,3.40
2022-10-08T04:48:26.692Z,3.77
2022-10-08T04:50:58.301Z,2.90
2022-10-08T04:53:27.986Z,2.87
2022-10-08T04:55:56.157Z,3.13
2022-10-08T04:58:25.090Z,3.80
2022-10-08T05:00:52.123Z,2.67
2022-10-08T05:03:18.739Z,3.07
2022-10-08T05:05:46.517Z,3.23
2022-10-08T05:08:13.213Z,3.30
2022-10-08T05:10:39.906Z,3.87
2022-10-08T05:13:06.545Z,2.63
2022-10-08T05:15:35.174Z,2.63
2022-10-08T05:18:01.840Z,3.10
2022-10-08T05:20:28.444Z,2.77
2022-10-08T05:22:55.054Z,3.47
2022-10-08T05:25:21.765Z,3.30
2022-10-08T05:27:48.335Z,2.80
2022-10-08T05:30:17.511Z,3.30
2022-10-08T05:32:48.088Z,3.37
2022-10-08T05:35:15.186Z,2.87
2022-10-08T05:37:41.785Z,3.47
2022-10-08T05:40:08.653Z,3.00
2022-10-08T05:42:35.325Z,2.87
2022-10-08T05:45:01.988Z,3.40
2022-10-08T05:47:28.589Z,2.80
2022-10-08T05:49:55.177Z,2.90
2022-10-08T05:52:21.927Z,3.57
2022-10-08T05:54:48.683Z,3.17
2022-10-08T05:57:15.278Z,3.50
2022-10-08T05:59:41.950Z,3.07
2022-10-08T06:02:10.933Z,3.53
2022-10-08T06:04:37.583Z,4.07
2022-10-08T06:07:04.248Z,3.57
2022-10-08T06:09:30.891Z,2.90
2022-10-08T06:11:58.013Z,4.63
2022-10-08T06:14:24.884Z,3.73
2022-10-08T06:16:51.488Z,3.23
2022-10-08T06:19:18.259Z,3.00
2022-10-08T06:21:44.927Z,3.20
2022-10-08T06:24:12.655Z,3.70
2022-10-08T06:26:41.309Z,2.57
2022-10-08T06:29:12.430Z,2.80
2022-10-08T06:31:39.107Z,3.20
2022-10-08T06:34:05.982Z,3.37
2022-10-08T06:36:34.033Z,3.57
2022-10-08T06:39:03.567Z,3.23
2022-10-08T06:41:30.512Z,3.27
2022-10-08T06:43:57.186Z,3.27
2022-10-08T06:46:23.856Z,2.73
2022-10-08T06:48:50.525Z,3.57
2022-10-08T06:51:18.896Z,3.40
2022-10-08T06:53:51.458Z,3.80
2022-10-08T06:56:18.140Z,2.57
2022-10-08T06:58:45.927Z,3.83
2022-10-08T07:01:14.891Z,3.50
2022-10-08T07:03:41.692Z,3.60
2022-10-08T07:06:10.782Z,3.17
2022-10-08T07:08:38.768Z,3.33
2022-10-08T07:11:07.560Z,5.70
2022-10-08T07:13:34.605Z,3.03
2022-10-08T07:16:10.726Z,4.20
2022-10-08T07:18:39.137Z,4.23
2022-10-08T07:21:06.817Z,3.23
2022-10-08T07:23:33.945Z,2.93
2022-10-08T07:26:06.319Z,2.93
2022-10-08T07:28:37.547Z,3.03
2022-10-08T07:31:15.553Z,3.70
2022-10-08T07:33:42.311Z,2.80
2022-10-08T07:36:13.868Z,2.97
2022-10-08T07:38:41.607Z,3.57
2022-10-08T07:41:09.473Z,3.10
2022-10-08T07:43:37.072Z,3.30
2022-10-08T07:46:06.238Z,2.80
2022-10-08T07:48:34.409Z,3.00
2022-10-08T07:51:15.530Z,2.93
2022-10-08T07:53:43.036Z,1.90
2022-10-08T07:56:12.633Z,2.43
2022-10-08T07:58:39.538Z,2.70
2022-10-08T08:01:08.722Z,2.93
2022-10-08T08:03:35.726Z,2.63
2022-10-08T08:06:04.957Z,3.20
2022-10-08T08:08:31.868Z,2.30
2022-10-08T08:10:59.960Z,3.10
2022-10-08T08:13:31.775Z,3.80
2022-10-08T08:16:06.798Z,2.97
2022-10-08T08:18:35.538Z,2.77
2022-10-08T08:21:05.689Z,2.83
2022-10-08T08:23:34.934Z,2.30
2022-10-08T08:26:06.613Z,2.07
2022-10-08T08:28:33.695Z,1.80
2022-10-08T08:31:17.860Z,2.53
2022-10-08T08:33:50.861Z,2.80
2022-10-08T08:36:18.531Z,1.97
2022-10-08T08:38:45.782Z,1.80
2022-10-08T08:41:56.642Z,2.57
2022-10-08T08:44:41.854Z,2.23
2022-10-08T08:47:18.747Z,2.07
2022-10-08T08:49:53.240Z,1.70
2022-10-08T08:52:25.114Z,1.70
2022-10-08T08:54:53.360Z,2.33
2022-10-08T08:57:44.132Z,2.80
2022-10-08T09:00:17.707Z,2.80
2022-10-08T09:03:05.234Z,2.93
2022-10-08T09:05:35.826Z,2.50
2022-10-08T09:08:30.878Z,2.23
2022-10-08T09:10:59.950Z,1.60
2022-10-08T09:13:53.031Z,1.73
2022-10-08T09:16:19.713Z,4.00
2022-10-08T09:18:49.245Z,2.50
2022-10-08T09:21:16.937Z,2.17
2022-10-08T09:23:44.203Z,1.23
2022-10-08T09:26:20.951Z,1.43
2022-10-08T09:28:50.377Z,1.80
2022-10-08T09:31:45.116Z,1.30
2022-10-08T09:34:17.652Z,1.67
2022-10-08T09:37:12.532Z,3.43
2022-10-08T09:39:39.347Z,1.53
2022-10-08T09:42:17.482Z,1.20
2022-10-08T09:44:52.570Z,1.90
2022-10-08T09:47:24.546Z,2.47
2022-10-08T09:50:06.936Z,1.60
2022-10-08T09:52:36.346Z,1.80
2022-10-08T09:55:16.356Z,1.53
2022-10-08T09:57:49.507Z,1.70
2022-10-08T10:00:29.885Z,1.27
2022-10-08T10:02:58.084Z,1.13
2022-10-08T10:05:29.870Z,1.43
2022-10-08T10:07:56.788Z,1.00
2022-10-08T10:10:39.137Z,1.80
2022-10-08T10:13:28.973Z,1.00
2022-10-08T10:16:14.496Z,1.20
2022-10-08T10:19:21.800Z,1.13
2022-10-08T10:21:52.533Z,1.10
2022-10-08T10:24:38.233Z,1.37
2022-10-08T10:27:13.687Z,1.00
2022-10-08T10:30:10.018Z,1.30
2022-10-08T10:32:45.892Z,1.20
2022-10-08T10:35:19.423Z,0.83
2022-10-08T10:38:08.829Z,1.20
2022-10-08T10:40:47.267Z,1.10
2022-10-08T10:43:31.033Z,1.40
2022-10-08T10:46:19.932Z,1.20
2022-10-08T10:48:46.655Z,1.60
2022-10-08T10:51:25.187Z,1.57
2022-10-08T10:54:04.375Z,1.60
2022-10-08T10:56:37.692Z,0.90
2022-10-08T10:59:08.869Z,1.10
2022-10-08T11:01:54.358Z,1.30
2022-10-08T11:04:26.795Z,0.80
2022-10-08T11:07:02.704Z,1.03
2022-10-08T11:09:33.158Z,1.03
2022-10-08T11:12:28.791Z,1.63
2022-10-08T11:15:03.606Z,1.07
2022-10-08T11:17:45.179Z,1.23
2022-10-08T11:20:37.954Z,1.10
2022-10-08T11:23:23.388Z,2.23
2022-10-08T11:26:20.480Z,0.87
2022-10-08T11:29:01.125Z,1.10
2022-10-08T11:31:43.799Z,1.00
2022-10-08T11:34:24.618Z,1.20
2022-10-08T11:37:20.163Z,1.03
2022-10-08T11:39:59.808Z,0.70
2022-10-08T11:42:44.995Z,0.73
2022-10-08T11:45:23.265Z,0.97
2022-10-08T11:47:54.833Z,0.60
2022-10-08T11:50:23.457Z,1.00
2022-10-08T11:52:51.636Z,0.60
2022-10-08T11:55:26.359Z,0.70
2022-10-08T11:58:08.002Z,0.63
2022-10-08T12:00:39.633Z,0.70
2022-10-08T12:03:23.249Z,0.70
2022-10-08T12:05:53.317Z,0.70
2022-10-08T12:08:50.469Z,0.80
2022-10-08T12:11:32.123Z,0.50
2022-10-08T12:14:17.090Z,0.80
2022-10-08T12:16:56.073Z,0.80
2022-10-08T12:19:34.825Z,0.70
2022-10-08T12:22:17.188Z,1.37
2022-10-08T12:24:49.556Z,0.80
2022-10-08T12:27:16.665Z,0.63
2022-10-08T12:30:05.508Z,0.80
2022-10-08T12:32:40.018Z,0.80
2022-10-08T12:35:27.472Z,0.63
2022-10-08T12:38:20.963Z,0.73
2022-10-08T12:40:50.318Z,0.90
2022-10-08T12:43:32.070Z,0.50
2022-10-08T12:46:17.623Z,1.03
2022-10-08T12:48:47.942Z,0.70
2022-10-08T12:51:24.956Z,1.00
2022-10-08T12:53:52.068Z,0.80
2022-10-08T12:56:26.473Z,1.03
2022-10-08T12:58:56.815Z,1.40
2022-10-08T13:01:24.646Z,0.77
2022-10-08T13:04:20.369Z,1.10
2022-10-08T13:06:48.402Z,1.37
2022-10-08T13:09:27.798Z,0.80
2022-10-08T13:12:01.985Z,1.80
2022-10-08T13:14:35.347Z,1.27
2022-10-08T13:17:03.023Z,1.00
2022-10-08T13:19:36.492Z,1.40
2022-10-08T13:22:22.680Z,0.80
2022-10-08T13:24:49.775Z,1.40
2022-10-08T13:27:23.564Z,1.73
2022-10-08T13:29:50.476Z,1.20
2022-10-08T13:32:22.902Z,1.10
2022-10-08T13:34:54.467Z,1.33
2022-10-08T13:37:29.241Z,1.60
2022-10-08T13:40:12.441Z,1.17
2022-10-08T13:42:52.152Z,2.10
2022-10-08T13:45:24.899Z,1.23
2022-10-08T13:47:52.585Z,1.40
2022-10-08T13:50:20.331Z,1.33
2022-10-08T13:52:54.337Z,0.83
2022-10-08T13:55:32.695Z,1.03
2022-10-08T13:58:02.044Z,1.10
2022-10-08T14:00:35.285Z,1.00
2022-10-08T14:03:03.026Z,1.07
2022-10-08T14:05:32.153Z,1.10
2022-10-08T14:08:02.792Z,1.83
2022-10-08T14:10:29.553Z,1.07
2022-10-08T14:12:56.241Z,1.10
2022-10-08T14:15:22.986Z,1.13
2022-10-08T14:17:50.590Z,1.37
2022-10-08T14:20:17.470Z,2.20
2022-10-08T14:22:44.285Z,1.60
2022-10-08T14:25:16.356Z,1.20
2022-10-08T14:27:42.971Z,1.53
2022-10-08T14:30:11.749Z,1.07
2022-10-08T14:32:39.143Z,1.40
2022-10-08T14:35:06.681Z,1.83
2022-10-08T14:37:34.207Z,1.17
2022-10-08T14:40:01.132Z,1.20
2022-10-08T14:42:27.713Z,1.20
2022-10-08T14:44:54.309Z,2.33
2022-10-08T14:47:20.906Z,1.10
2022-10-08T14:49:47.489Z,1.60
2022-10-08T14:52:14.103Z,1.07
2022-10-08T14:54:40.701Z,1.60
2022-10-08T14:57:07.408Z,2.10
2022-10-08T14:59:39.033Z,1.00
2022-10-08T15:02:06.695Z,1.13
2022-10-08T15:04:33.453Z,1.03
2022-10-08T15:07:00.137Z,1.27
2022-10-08T15:09:28.356Z,2.87
2022-10-08T15:11:54.934Z,1.17
2022-10-08T15:14:21.504Z,1.43
2022-10-08T15:16:48.161Z,1.40
2022-10-08T15:19:15.700Z,1.27
2022-10-08T15:21:44.353Z,1.83
2022-10-08T15:24:10.932Z,1.67
2022-10-08T15:26:37.575Z,1.77
2022-10-08T15:29:04.570Z,1.93
2022-10-08T15:31:31.284Z,1.33
2022-10-08T15:33:59.616Z,2.30
2022-10-08T15:36:27.964Z,1.20
2022-10-08T15:39:00.537Z,2.00
2022-10-08T15:41:28.628Z,2.17
2022-10-08T15:43:55.735Z,1.27
2022-10-08T15:46:26.083Z,1.87
2022-10-08T15:48:54.805Z,2.63
2022-10-08T15:51:22.691Z,1.50
2022-10-08T15:53:50.363Z,1.47
2022-10-08T15:56:17.408Z,1.40
2022-10-08T15:58:50.780Z,1.20
2022-10-08T16:01:20.362Z,1.10
2022-10-08T16:03:49.330Z,1.00
2022-10-08T16:06:19.009Z,1.87
2022-10-08T16:08:45.633Z,1.50
2022-10-08T16:11:17.296Z,1.90
2022-10-08T16:13:48.861Z,1.70
2022-10-08T16:16:18.719Z,1.40
2022-10-08T16:18:47.204Z,1.57
2022-10-08T16:21:14.170Z,1.20
2022-10-08T16:23:40.844Z,1.50
2022-10-08T16:26:11.033Z,1.80
2022-10-08T16:28:39.882Z,1.73
2022-10-08T16:31:08.296Z,1.90
2022-10-08T16:33:35.057Z,1.73
2022-10-08T16:36:04.445Z,1.17
2022-10-08T16:38:32.935Z,1.77
2022-10-08T16:41:17.676Z,1.97
2022-10-08T16:43:47.029Z,1.80
2022-10-08T16:46:22.303Z,2.17
2022-10-08T16:49:00.853Z,2.23
2022-10-08T16:51:30.597Z,2.20
2022-10-08T16:53:59.047Z,1.30
2022-10-08T16:56:31.104Z,1.77
2022-10-08T16:59:00.344Z,1.67
2022-10-08T17:01:27.527Z,1.30
2022-10-08T17:03:54.599Z,1.63
2022-10-08T17:06:23.023Z,1.73
2022-10-08T17:08:50.853Z,2.23
2022-10-08T17:11:18.678Z,2.10
2022-10-08T17:13:47.919Z,2.17
2022-10-08T17:16:15.022Z,1.80
2022-10-08T17:18:44.147Z,1.87
2022-10-08T17:21:11.754Z,1.77
2022-10-08T17:23:38.824Z,1.90
2022-10-08T17:26:08.494Z,2.50
2022-10-08T17:28:38.094Z,2.53
2022-10-08T17:31:06.018Z,2.83
2022-10-08T17:33:36.014Z,1.90
2022-10-08T17:36:15.623Z,2.90
2022-10-08T17:38:44.061Z,2.47
2022-10-08T17:41:12.909Z,2.10
2022-10-08T17:43:39.532Z,2.10
2022-10-08T17:46:16.873Z,3.50
2022-10-08T17:48:43.705Z,2.40
2022-10-08T17:51:13.688Z,2.70
2022-10-08T17:53:40.876Z,2.60
2022-10-08T17:56:10.383Z,3.20
2022-10-08T17:58:37.455Z,3.10
2022-10-08T18:01:04.169Z,3.80
2022-10-08T18:03:30.879Z,3.80
2022-10-08T18:05:58.860Z,3.13
2022-10-08T18:08:26.022Z,3.27
2022-10-08T18:10:52.717Z,3.80
2022-10-08T18:13:19.721Z,3.07
2022-10-08T18:15:46.739Z,3.77
2022-10-08T18:18:13.523Z,2.70
2022-10-08T18:20:40.210Z,3.10
2022-10-08T18:23:08.385Z,3.40
2022-10-08T18:25:35.838Z,2.30
2022-10-08T18:28:03.098Z,3.03
2022-10-08T18:30:29.892Z,4.30
2022-10-08T18:32:57.119Z,2.20
2022-10-08T18:35:25.247Z,2.70
2022-10-08T18:37:51.962Z,3.23
2022-10-08T18:40:18.666Z,6.10
2022-10-08T18:42:45.666Z,2.70
2022-10-08T18:45:12.528Z,3.27
2022-10-08T18:47:39.172Z,3.07
2022-10-08T18:50:06.311Z,3.50
2022-10-08T18:52:33.519Z,5.50
2022-10-08T18:55:03.103Z,3.10
2022-10-08T18:57:29.743Z,4.37
2022-10-08T18:59:56.404Z,3.10
2022-10-08T19:02:23.266Z,3.47
2022-10-08T19:04:50.083Z,3.77
2022-10-08T19:07:16.746Z,3.50
2022-10-08T19:09:43.444Z,3.47
2022-10-08T19:12:10.050Z,2.23
2022-10-08T19:14:36.756Z,2.37
2022-10-08T19:17:03.422Z,2.97
2022-10-08T19:19:31.756Z,2.67
2022-10-08T19:22:01.313Z,2.57
2022-10-08T19:24:28.725Z,2.70
2022-10-08T19:26:57.295Z,1.77
2022-10-08T19:29:28.761Z,2.07
2022-10-08T19:31:56.268Z,1.43
2022-10-08T19:34:25.127Z,1.60
2022-10-08T19:36:52.395Z,1.87
2022-10-08T19:39:21.991Z,1.83
2022-10-08T19:41:49.236Z,2.10
2022-10-08T19:44:17.181Z,3.40
2022-10-08T19:46:44.365Z,3.10
2022-10-08T19:49:12.763Z,3.07
2022-10-08T19:51:40.195Z,4.60
2022-10-08T19:54:07.059Z,2.70
2022-10-08T19:56:33.957Z,3.63
2022-10-08T19:59:00.653Z,2.00
2022-10-08T20:01:30.194Z,3.07
2022-10-08T20:03:58.657Z,4.13
2022-10-08T20:06:28.595Z,3.57
2022-10-08T20:08:57.352Z,3.93
2022-10-08T20:11:24.650Z,3.90
2022-10-08T20:13:52.967Z,3.20
2022-10-08T20:16:31.345Z,3.03
2022-10-08T20:19:06.563Z,2.27
2022-10-08T20:21:35.882Z,3.60
2022-10-08T20:24:03.103Z,2.90
2022-10-08T20:26:32.482Z,2.90
2022-10-08T20:29:02.025Z,2.70
2022-10-08T20:31:31.021Z,2.97
2022-10-08T20:34:12.974Z,2.00
2022-10-08T20:36:39.753Z,3.70
2022-10-08T20:39:07.158Z,2.53
2022-10-08T20:41:33.923Z,2.90
2022-10-08T20:44:04.735Z,2.67
2022-10-08T20:46:33.881Z,2.53
2022-10-08T20:49:01.158Z,3.30
2022-10-08T20:51:28.943Z,2.80
2022-10-08T20:53:58.609Z,3.23
2022-10-08T20:56:26.023Z,2.40
2022-10-08T20:58:53.211Z,2.83
2022-10-08T21:01:24.941Z,3.00
2022-10-08T21:03:52.207Z,2.43
2022-10-08T21:06:21.918Z,2.20
2022-10-08T21:08:50.558Z,2.33
2022-10-08T21:11:19.648Z,3.60
2022-10-08T21:13:46.981Z,2.87
2022-10-08T21:16:14.751Z,1.87
2022-10-08T21:18:41.744Z,2.20
2022-10-08T21:21:11.581Z,2.13
2022-10-08T21:23:39.038Z,2.77
2022-10-08T21:26:14.578Z,2.30
2022-10-08T21:28:42.652Z,2.43
2022-10-08T21:31:10.479Z,2.17
2022-10-08T21:33:38.820Z,2.10
2022-10-08T21:36:07.519Z,2.43
2022-10-08T21:38:34.312Z,3.47
2022-10-08T21:41:11.147Z,2.93
2022-10-08T21:43:52.762Z,3.03
2022-10-08T21:46:21.987Z,2.10
2022-10-08T21:48:54.244Z,2.30
2022-10-08T21:51:21.165Z,2.53
2022-10-08T21:53:49.930Z,2.43
2022-10-08T21:56:18.860Z,1.70
2022-10-08T21:58:51.401Z,2.67
2022-10-08T22:01:37.118Z,2.87
2022-10-08T22:04:05.512Z,2.70
2022-10-08T22:06:34.779Z,2.40
2022-10-08T22:09:01.567Z,2.30
2022-10-08T22:11:28.202Z,3.23
2022-10-08T22:13:54.837Z,2.53
2022-10-08T22:16:22.861Z,1.97
2022-10-08T22:18:49.661Z,2.13
2022-10-08T22:21:18.799Z,2.27
2022-10-08T22:23:46.612Z,2.43
2022-10-08T22:26:16.212Z,1.87
2022-10-08T22:28:43.481Z,2.60
2022-10-08T22:31:12.666Z,1.73
2022-10-08T22:33:39.355Z,1.83
2022-10-08T22:36:11.873Z,2.50
2022-10-08T22:38:40.194Z,2.97
2022-10-08T22:41:12.685Z,2.53
2022-10-08T22:43:41.113Z,2.50
2022-10-08T22:46:13.817Z,2.20
2022-10-08T22:48:40.748Z,2.30
2022-10-08T22:51:10.715Z,2.43
2022-10-08T22:53:37.560Z,3.37
2022-10-08T22:56:09.923Z,1.97
2022-10-08T22:58:36.550Z,2.63
2022-10-08T23:01:04.814Z,2.20
2022-10-08T23:03:32.500Z,4.23
2022-10-08T23:06:16.396Z,2.30
2022-10-08T23:08:44.053Z,1.80
2022-10-08T23:11:11.306Z,2.50
2022-10-08T23:13:37.959Z,2.17
2022-10-08T23:16:04.679Z,2.00
2022-10-08T23:18:33.533Z,2.10
2022-10-08T23:21:09.373Z,2.90
2022-10-08T23:23:36.371Z,2.63
2022-10-08T23:26:04.933Z,2.33
2022-10-08T23:28:33.122Z,2.03
2022-10-08T23:31:15.469Z,2.10
2022-10-08T23:33:44.770Z,2.33
2022-10-08T23:36:17.534Z,1.70
2022-10-08T23:38:44.390Z,1.70
2022-10-08T23:41:12.174Z,2.00
2022-10-08T23:43:41.280Z,2.40
2022-10-08T23:46:09.606Z,1.90
2022-10-08T23:48:36.565Z,2.60
2022-10-08T23:51:03.417Z,3.23
2022-10-08T23:53:30.407Z,2.50
2022-10-08T23:55:57.134Z,2.60
2022-10-08T23:58:23.944Z,2.10
